Time;durP1;ratioP1;P1;durP2;ratioP2;P2;SDS_P1;SDS_P2;PMS_P1;PMS_P2;Temp;Humidity;BMP_temperature;BMP_pressure;BME280_temperature;BME280_humidity;BME280_pressure;Samples;Min_cycle;Max_cycle;Signal;HPM_P1;HPM_P2
2022/12/17 13:06:36;;;;;;;;;;;1.60;99.90;;;;;;5025242;28;19917;-72
2022/12/17 13:09:14;;;;;;;;;;;1.60;99.90;;;;;;5023740;28;19917;-71
2022/12/17 13:11:44;;;;;;;;;;;1.70;99.90;;;;;;5025343;28;19913;-71
2022/12/17 13:14:17;;;;;;;;;;;1.70;99.90;;;;;;5024123;28;19913;-72
2022/12/17 13:16:46;;;;;;;;;;;1.70;99.90;;;;;;5000837;28;19909;-72
2022/12/17 13:19:19;;;;;;;;;;;1.80;99.90;;;;;;5007488;28;19963;-73
2022/12/17 13:21:45;;;;;;;;;;;1.80;99.90;;;;;;5025188;28;19944;-72
2022/12/17 13:24:12;;;;;;;;;;;1.80;99.90;;;;;;5026046;28;19928;-73
2022/12/17 13:26:40;;;;;;;;;;;1.90;99.90;;;;;;5025074;28;19924;-72
2022/12/17 13:29:32;;;;;;;;;;;1.90;99.90;;;;;;5026075;28;20334;-72
2022/12/17 13:31:57;;;;;;;;;;;1.90;99.90;;;;;;5007497;28;19917;-72
2022/12/17 13:34:43;;;;;;;;;;;1.90;99.90;;;;;;5025819;28;20687;-72
2022/12/17 13:37:30;;;;;;;;;;;1.90;99.90;;;;;;5025910;28;20432;-72
2022/12/17 13:40:03;;;;;;;;;;;2.00;99.90;;;;;;5017875;28;20007;-72
2022/12/17 13:42:33;;;;;;;;;;;2.00;99.90;;;;;;5028806;28;20326;-71
2022/12/17 13:44:59;;;;;;;;;;;2.00;99.90;;;;;;5009768;28;19913;-70
2022/12/17 13:47:47;;;;;;;;;;;2.00;99.90;;;;;;5030643;28;19990;-72
2022/12/17 13:50:17;;;;;;;;;;;2.00;99.90;;;;;;5023431;28;20404;-72
2022/12/17 13:52:43;;;;;;;;;;;2.00;99.90;;;;;;5029065;28;20266;-71
2022/12/17 13:55:12;;;;;;;;;;;2.20;99.90;;;;;;5024114;28;20266;-71
2022/12/17 13:57:37;;;;;;;;;;;2.20;99.90;;;;;;5029458;28;20311;-72
2022/12/17 14:00:06;;;;;;;;;;;2.30;99.90;;;;;;5028823;28;19920;-72
2022/12/17 14:02:32;;;;;;;;;;;2.50;99.90;;;;;;5023898;28;19990;-72
2022/12/17 14:05:01;;;;;;;;;;;2.80;99.90;;;;;;5019508;28;19914;-72
2022/12/17 14:07:27;;;;;;;;;;;2.90;99.90;;;;;;5028129;28;19943;-72
2022/12/17 14:09:53;;;;;;;;;;;3.00;99.90;;;;;;5019826;28;20584;-73
2022/12/17 14:12:22;;;;;;;;;;;3.10;99.90;;;;;;5008020;28;20680;-73
2022/12/17 14:14:50;;;;;;;;;;;3.20;99.90;;;;;;5027802;28;19913;-73
2022/12/17 14:17:19;;;;;;;;;;;3.30;99.90;;;;;;5028397;28;19978;-73
2022/12/17 14:19:45;;;;;;;;;;;3.30;99.90;;;;;;5028391;28;19967;-72
2022/12/17 14:22:15;;;;;;;;;;;3.30;99.90;;;;;;5012195;28;20289;-72
2022/12/17 14:24:40;;;;;;;;;;;3.20;99.90;;;;;;4997682;28;20014;-72
2022/12/17 14:27:16;;;;;;;;;;;3.10;99.90;;;;;;5027659;28;20406;-72
2022/12/17 14:29:45;;;;;;;;;;;3.00;99.90;;;;;;5021650;28;20290;-72
2022/12/17 14:32:21;;;;;;;;;;;3.00;99.90;;;;;;5020198;28;20405;-72
2022/12/17 14:34:46;;;;;;;;;;;2.90;99.90;;;;;;5029185;28;19913;-72
2022/12/17 14:37:16;;;;;;;;;;;2.80;99.90;;;;;;5027906;28;20367;-73
2022/12/17 14:39:42;;;;;;;;;;;2.80;99.90;;;;;;5023164;28;19928;-73
2022/12/17 14:42:24;;;;;;;;;;;2.70;99.90;;;;;;5011796;28;19920;-72
2022/12/17 14:44:51;;;;;;;;;;;2.60;99.90;;;;;;5027498;28;19913;-72
2022/12/17 14:47:20;;;;;;;;;;;2.50;99.90;;;;;;5028497;28;19924;-72
2022/12/17 14:50:09;;;;;;;;;;;2.40;99.90;;;;;;5027810;28;19999;-73
2022/12/17 14:52:45;;;;;;;;;;;2.30;99.90;;;;;;5023017;28;19919;-72
2022/12/17 14:55:40;;;;;;;;;;;2.20;99.90;;;;;;5025207;28;19920;-72
2022/12/17 14:58:06;;;;;;;;;;;2.10;99.90;;;;;;5022708;28;20039;-72
2022/12/17 15:00:32;;;;;;;;;;;2.00;99.90;;;;;;5025828;28;19931;-72
2022/12/17 15:02:58;;;;;;;;;;;1.90;99.90;;;;;;5027835;28;20573;-72
2022/12/17 15:05:23;;;;;;;;;;;1.70;99.90;;;;;;5026742;28;19923;-72
2022/12/17 15:07:50;;;;;;;;;;;1.60;99.90;;;;;;5027236;28;19913;-73
2022/12/17 15:10:17;;;;;;;;;;;1.60;99.90;;;;;;5027435;28;19943;-72
2022/12/17 15:12:43;;;;;;;;;;;1.50;99.90;;;;;;5007911;28;19920;-72
2022/12/17 15:15:12;;;;;;;;;;;1.40;99.90;;;;;;5025104;28;19917;-72
2022/12/17 15:17:38;;;;;;;;;;;1.40;99.90;;;;;;5021734;28;20377;-72
2022/12/17 15:20:04;;;;;;;;;;;1.30;99.90;;;;;;5001546;28;19909;-72
2022/12/17 15:22:29;;;;;;;;;;;1.20;99.90;;;;;;5026091;28;19913;-72
2022/12/17 15:24:55;;;;;;;;;;;1.10;99.90;;;;;;5027290;28;19971;-72
2022/12/17 15:27:21;;;;;;;;;;;1.00;99.90;;;;;;5001855;28;19924;-72
2022/12/17 15:29:46;;;;;;;;;;;1.00;99.90;;;;;;5011056;28;19913;-72
2022/12/17 15:32:21;;;;;;;;;;;0.90;99.90;;;;;;5021688;28;20380;-72
2022/12/17 15:34:47;;;;;;;;;;;0.80;99.90;;;;;;5024056;28;20282;-72
2022/12/17 15:37:13;;;;;;;;;;;0.80;99.90;;;;;;5027487;28;19917;-72
2022/12/17 15:39:38;;;;;;;;;;;0.70;99.90;;;;;;5015388;28;19913;-72
2022/12/17 15:44:49;;;;;;;;;;;0.60;99.90;;;;;;5029617;28;19920;-72
2022/12/17 15:47:15;;;;;;;;;;;0.50;99.90;;;;;;5025781;28;19921;-73
2022/12/17 15:49:42;;;;;;;;;;;0.50;99.90;;;;;;5026971;28;20627;-73
2022/12/17 15:52:08;;;;;;;;;;;0.40;99.90;;;;;;5025057;28;19909;-72
2022/12/17 15:54:33;;;;;;;;;;;0.40;99.90;;;;;;5027798;28;20724;-72
2022/12/17 15:56:59;;;;;;;;;;;0.40;99.90;;;;;;5023164;28;19929;-72
2022/12/17 15:59:24;;;;;;;;;;;0.40;99.90;;;;;;5025334;28;19912;-72
2022/12/17 16:01:50;;;;;;;;;;;0.30;99.90;;;;;;5026258;28;19924;-72
2022/12/17 16:04:16;;;;;;;;;;;0.30;99.90;;;;;;5004314;28;19979;-72
2022/12/17 16:06:41;;;;;;;;;;;0.20;99.90;;;;;;5025051;28;19955;-71
2022/12/17 16:09:07;;;;;;;;;;;0.30;99.90;;;;;;5020270;28;19990;-71
2022/12/17 16:11:33;;;;;;;;;;;0.20;99.90;;;;;;5007813;28;19913;-71
2022/12/17 16:13:58;;;;;;;;;;;0.20;99.90;;;;;;5026184;28;19966;-71
2022/12/17 16:16:24;;;;;;;;;;;0.20;99.90;;;;;;5027498;28;19913;-71
2022/12/17 16:18:49;;;;;;;;;;;0.20;99.90;;;;;;5025501;28;19924;-71
2022/12/17 16:21:15;;;;;;;;;;;0.20;99.90;;;;;;5026228;28;19909;-71
2022/12/17 16:23:41;;;;;;;;;;;0.20;99.90;;;;;;5026440;28;20500;-72
2022/12/17 16:26:06;;;;;;;;;;;0.20;99.90;;;;;;5008611;28;19913;-71
2022/12/17 16:28:32;;;;;;;;;;;0.20;99.90;;;;;;5025734;28;20642;-71
2022/12/17 16:31:05;;;;;;;;;;;0.10;99.90;;;;;;5026187;28;19913;-72
2022/12/17 16:33:34;;;;;;;;;;;0.10;99.90;;;;;;5023376;28;19913;-73
2022/12/17 16:36:00;;;;;;;;;;;0.00;99.90;;;;;;5019062;28;19912;-72
2022/12/17 16:38:25;;;;;;;;;;;-0.10;99.90;;;;;;5025450;28;19991;-72
2022/12/17 16:41:00;;;;;;;;;;;-0.20;99.90;;;;;;5032407;28;20303;-72
2022/12/17 16:43:26;;;;;;;;;;;-0.20;99.90;;;;;;5005774;28;19913;-74
2022/12/17 16:45:52;;;;;;;;;;;-0.40;99.90;;;;;;5026320;28;19912;-72
2022/12/17 16:48:18;;;;;;;;;;;-0.50;99.90;;;;;;5023097;28;20637;-72
2022/12/17 16:50:44;;;;;;;;;;;-0.50;99.90;;;;;;5025800;28;19913;-72
2022/12/17 16:53:09;;;;;;;;;;;-0.50;99.90;;;;;;5008744;28;19912;-72
2022/12/17 16:55:55;;;;;;;;;;;-0.60;99.90;;;;;;5022394;28;20003;-72
2022/12/17 16:58:21;;;;;;;;;;;-0.70;99.90;;;;;;5024631;28;19952;-72
2022/12/17 17:00:52;;;;;;;;;;;-0.60;99.90;;;;;;5024808;28;19959;-72
2022/12/17 17:03:17;;;;;;;;;;;-0.70;99.90;;;;;;5028109;28;19913;-72
2022/12/17 17:05:43;;;;;;;;;;;-0.60;99.90;;;;;;5028053;28;19912;-73
2022/12/17 17:08:09;;;;;;;;;;;-0.70;99.90;;;;;;5023356;28;20383;-73
2022/12/17 17:10:35;;;;;;;;;;;-0.80;99.90;;;;;;5024909;28;19928;-72
2022/12/17 17:13:01;;;;;;;;;;;-0.80;99.90;;;;;;5026646;28;20125;-72
2022/12/17 17:15:30;;;;;;;;;;;-0.90;99.90;;;;;;5025288;28;19913;-73
2022/12/17 17:17:55;;;;;;;;;;;-0.90;99.90;;;;;;5025223;28;19928;-73
2022/12/17 17:20:21;;;;;;;;;;;-0.90;99.90;;;;;;5006686;28;19917;-72
2022/12/17 17:22:48;;;;;;;;;;;-1.00;99.90;;;;;;5021017;28;19913;-72
2022/12/17 17:25:13;;;;;;;;;;;-1.00;99.90;;;;;;5025458;28;20360;-72
2022/12/17 17:27:39;;;;;;;;;;;-1.10;99.90;;;;;;5024957;28;19908;-72
2022/12/17 17:30:05;;;;;;;;;;;-1.20;99.90;;;;;;5018529;28;19913;-72
2022/12/17 17:32:30;;;;;;;;;;;-1.20;99.90;;;;;;5016992;28;19913;-72
2022/12/17 17:34:57;;;;;;;;;;;-1.20;99.90;;;;;;5031140;28;19963;-73
2022/12/17 17:37:23;;;;;;;;;;;-1.20;99.90;;;;;;5006741;28;19917;-73
2022/12/17 17:39:49;;;;;;;;;;;-1.30;99.90;;;;;;5030154;28;19970;-72
2022/12/17 17:42:14;;;;;;;;;;;-1.30;99.90;;;;;;5025141;28;20457;-73
2022/12/17 17:44:40;;;;;;;;;;;-1.40;99.90;;;;;;5007000;28;19955;-73
2022/12/17 17:47:05;;;;;;;;;;;-1.50;99.90;;;;;;5023758;28;19991;-72
2022/12/17 17:49:31;;;;;;;;;;;-1.50;99.90;;;;;;5025047;28;20180;-73
2022/12/17 17:51:57;;;;;;;;;;;-1.50;99.90;;;;;;5022082;28;19913;-72
2022/12/17 17:54:22;;;;;;;;;;;-1.50;99.90;;;;;;5025405;28;19975;-72
2022/12/17 17:56:48;;;;;;;;;;;-1.60;99.90;;;;;;5025919;28;19926;-71
2022/12/17 17:59:14;;;;;;;;;;;-1.50;99.90;;;;;;5008255;28;20032;-72
2022/12/17 18:01:41;;;;;;;;;;;-1.50;99.90;;;;;;5024057;28;19914;-72
2022/12/17 18:04:07;;;;;;;;;;;-1.60;99.90;;;;;;5020140;28;19912;-72
2022/12/17 18:06:35;;;;;;;;;;;-1.60;99.90;;;;;;5008302;28;19924;-72
2022/12/17 18:09:01;;;;;;;;;;;-1.60;99.90;;;;;;5022249;28;19992;-72
2022/12/17 18:11:27;;;;;;;;;;;-1.70;99.90;;;;;;5025883;28;20290;-72
2022/12/17 18:13:56;;;;;;;;;;;-1.70;99.90;;;;;;5024608;28;19913;-72
2022/12/17 18:16:28;;;;;;;;;;;-1.80;99.90;;;;;;5028248;28;19921;-72
2022/12/17 18:18:54;;;;;;;;;;;-1.90;99.90;;;;;;5018096;28;19917;-72
2022/12/17 18:21:20;;;;;;;;;;;-1.90;99.90;;;;;;5024672;28;19921;-72
2022/12/17 18:23:46;;;;;;;;;;;-2.00;99.90;;;;;;5016997;28;19914;-72
2022/12/17 18:26:17;;;;;;;;;;;-2.00;99.90;;;;;;5025261;28;19952;-72
2022/12/17 18:28:43;;;;;;;;;;;-2.00;99.90;;;;;;5027954;28;19912;-71
2022/12/17 18:31:10;;;;;;;;;;;-2.10;99.90;;;;;;5028745;28;19975;-72
2022/12/17 18:33:36;;;;;;;;;;;-2.10;99.90;;;;;;5022999;28;19967;-72
2022/12/17 18:36:05;;;;;;;;;;;-2.10;99.90;;;;;;5029109;28;19921;-72
2022/12/17 18:38:31;;;;;;;;;;;-2.10;99.90;;;;;;5011954;28;19917;-73
2022/12/17 18:41:03;;;;;;;;;;;-2.10;99.90;;;;;;5028418;28;19924;-72
2022/12/17 18:43:28;;;;;;;;;;;-2.10;99.90;;;;;;5028988;28;19956;-72
2022/12/17 18:45:54;;;;;;;;;;;-2.20;99.90;;;;;;5029323;28;19952;-72
2022/12/17 18:48:20;;;;;;;;;;;-2.20;99.90;;;;;;5025963;28;19999;-72
2022/12/17 18:50:45;;;;;;;;;;;-2.10;99.90;;;;;;5012417;28;19939;-72
2022/12/17 18:53:11;;;;;;;;;;;-2.20;99.90;;;;;;5028237;28;19971;-72
2022/12/17 18:55:39;;;;;;;;;;;-2.20;99.90;;;;;;5011097;28;20321;-72
2022/12/17 18:58:05;;;;;;;;;;;-2.30;99.90;;;;;;5025045;28;19952;-72
2022/12/17 19:00:31;;;;;;;;;;;-2.30;99.90;;;;;;5014458;28;20120;-72
2022/12/17 19:02:57;;;;;;;;;;;-2.30;99.90;;;;;;5028990;28;19913;-73
2022/12/17 19:05:22;;;;;;;;;;;-2.30;99.90;;;;;;5032228;28;19913;-73
2022/12/17 19:07:48;;;;;;;;;;;-2.30;99.90;;;;;;5026009;28;20357;-72
2022/12/17 19:10:14;;;;;;;;;;;-2.50;99.90;;;;;;5028346;28;19913;-73
2022/12/17 19:12:39;;;;;;;;;;;-2.50;99.90;;;;;;5029104;28;19966;-73
2022/12/17 19:15:05;;;;;;;;;;;-2.60;99.90;;;;;;5025051;28;20349;-73
2022/12/17 19:17:31;;;;;;;;;;;-2.60;99.90;;;;;;5026905;28;19979;-73
2022/12/17 19:19:56;;;;;;;;;;;-2.70;99.90;;;;;;5029578;28;20582;-73
2022/12/17 19:22:22;;;;;;;;;;;-2.70;99.90;;;;;;5026148;28;20373;-72
2022/12/17 19:24:47;;;;;;;;;;;-2.70;99.90;;;;;;5027576;28;19956;-73
2022/12/17 19:27:13;;;;;;;;;;;-2.60;99.90;;;;;;5011265;28;19979;-72
2022/12/17 19:29:39;;;;;;;;;;;-2.60;99.90;;;;;;5028166;28;19948;-72
2022/12/17 19:32:04;;;;;;;;;;;-2.70;99.90;;;;;;5027868;28;20016;-72
2022/12/17 19:34:31;;;;;;;;;;;-2.70;99.90;;;;;;5027333;28;19912;-72
2022/12/17 19:36:56;;;;;;;;;;;-2.80;99.90;;;;;;5025999;28;19994;-73
2022/12/17 19:39:22;;;;;;;;;;;-2.80;99.90;;;;;;5006663;28;20323;-72
2022/12/17 19:41:51;;;;;;;;;;;-2.90;99.90;;;;;;5027143;28;19925;-72
2022/12/17 19:44:18;;;;;;;;;;;-2.80;99.90;;;;;;5020352;28;19940;-73
2022/12/17 19:46:44;;;;;;;;;;;-2.80;99.90;;;;;;5024401;28;19913;-72
2022/12/17 19:49:10;;;;;;;;;;;-2.80;99.90;;;;;;5009435;28;19913;-72
2022/12/17 19:51:38;;;;;;;;;;;-2.90;99.90;;;;;;5025469;28;19924;-73
2022/12/17 19:54:04;;;;;;;;;;;-2.80;99.90;;;;;;5009485;28;19921;-73
2022/12/17 19:56:29;;;;;;;;;;;-2.90;99.90;;;;;;5025577;28;20462;-72
2022/12/17 19:58:56;;;;;;;;;;;-3.00;99.90;;;;;;5007209;28;20315;-63
2022/12/17 20:01:23;;;;;;;;;;;-3.00;99.90;;;;;;5025056;28;20622;-63
2022/12/17 20:03:49;;;;;;;;;;;-3.10;99.90;;;;;;5025155;28;19924;-63
2022/12/17 20:06:14;;;;;;;;;;;-3.00;99.90;;;;;;4999779;28;20120;-63
2022/12/17 20:08:42;;;;;;;;;;;-2.90;99.90;;;;;;5008975;28;19946;-64
2022/12/17 20:14:06;;;;;;;;;;;-3.00;99.90;;;;;;5012808;28;19913;-64
2022/12/17 20:16:33;;;;;;;;;;;-3.00;99.90;;;;;;4987576;28;19917;-63
2022/12/17 20:18:59;;;;;;;;;;;-3.10;99.90;;;;;;5025117;28;20498;-63
2022/12/17 20:21:24;;;;;;;;;;;-3.00;99.90;;;;;;5002163;28;20366;-63
2022/12/17 20:23:50;;;;;;;;;;;-3.00;99.90;;;;;;5022099;28;19924;-63
2022/12/17 20:26:16;;;;;;;;;;;-3.00;99.90;;;;;;5024422;28;19963;-64
2022/12/17 20:28:42;;;;;;;;;;;-3.00;99.90;;;;;;5025159;28;20007;-64
2022/12/17 20:31:08;;;;;;;;;;;-3.00;99.90;;;;;;5025788;28;19913;-63
2022/12/17 20:33:34;;;;;;;;;;;-3.00;99.90;;;;;;5024948;28;20252;-64
2022/12/17 20:36:03;;;;;;;;;;;-3.00;99.90;;;;;;5018762;28;19909;-64
2022/12/17 20:38:29;;;;;;;;;;;-3.00;99.90;;;;;;5021625;28;19917;-64
2022/12/17 20:40:54;;;;;;;;;;;-3.00;99.90;;;;;;5025707;28;19921;-63
2022/12/17 20:43:20;;;;;;;;;;;-3.10;99.90;;;;;;5022657;28;20396;-64
2022/12/17 20:45:47;;;;;;;;;;;-3.10;99.90;;;;;;5023872;28;19917;-63
2022/12/17 20:48:13;;;;;;;;;;;-3.10;99.90;;;;;;5026098;28;19912;-74
2022/12/17 20:50:39;;;;;;;;;;;-3.10;99.90;;;;;;5019118;28;19994;-64
2022/12/17 20:53:05;;;;;;;;;;;-3.10;99.90;;;;;;5024289;28;19974;-63
2022/12/17 20:55:31;;;;;;;;;;;-3.00;99.90;;;;;;4999273;28;19912;-63
2022/12/17 20:57:57;;;;;;;;;;;-3.10;99.90;;;;;;5025007;28;19916;-64
2022/12/17 21:00:22;;;;;;;;;;;-3.10;99.90;;;;;;5020672;28;19913;-64
2022/12/17 21:02:48;;;;;;;;;;;-3.10;99.90;;;;;;5023952;28;19913;-63
2022/12/17 21:05:14;;;;;;;;;;;-3.10;99.90;;;;;;5023325;28;19951;-72
2022/12/17 21:07:42;;;;;;;;;;;-3.10;99.90;;;;;;5026814;28;19923;-72
2022/12/17 21:10:07;;;;;;;;;;;-3.30;99.90;;;;;;5024827;28;20458;-64
2022/12/17 21:13:27;;;;;;;;;;;-3.40;99.90;;;;;;5025227;28;19917;-64
2022/12/17 21:15:18;;;;;;;;;;;-3.40;99.90;;;;;;5021198;28;19921;-64
2022/12/17 21:17:44;;;;;;;;;;;-3.40;99.90;;;;;;5024451;28;20314;-64
2022/12/17 21:20:10;;;;;;;;;;;-3.50;99.90;;;;;;5024689;28;19913;-63
2022/12/17 21:22:36;;;;;;;;;;;-3.60;99.90;;;;;;5018619;28;19919;-63
2022/12/17 21:25:01;;;;;;;;;;;-3.70;99.90;;;;;;5009022;28;20058;-63
2022/12/17 21:27:27;;;;;;;;;;;-3.80;99.90;;;;;;5025078;28;20659;-64
2022/12/17 21:29:53;;;;;;;;;;;-3.80;99.90;;;;;;5024982;28;20406;-63
2022/12/17 21:32:18;;;;;;;;;;;-3.80;99.90;;;;;;5021894;28;20550;-63
2022/12/17 21:34:44;;;;;;;;;;;-3.80;99.90;;;;;;5024600;28;19913;-63
2022/12/17 21:37:10;;;;;;;;;;;-3.70;99.90;;;;;;5023356;28;20406;-63
2022/12/17 21:39:35;;;;;;;;;;;-3.70;99.90;;;;;;5022836;28;19913;-63
2022/12/17 21:44:45;;;;;;;;;;;-3.70;99.90;;;;;;5022497;28;19913;-63
2022/12/17 21:47:11;;;;;;;;;;;-3.90;99.90;;;;;;5024362;28;20373;-64
2022/12/17 21:49:36;;;;;;;;;;;-3.90;99.90;;;;;;5024749;28;20298;-64
2022/12/17 21:52:02;;;;;;;;;;;-4.10;99.90;;;;;;5010334;28;19917;-67
2022/12/17 21:54:29;;;;;;;;;;;-4.10;99.90;;;;;;4992171;28;19913;-73
2022/12/17 21:56:55;;;;;;;;;;;-4.20;99.90;;;;;;5025970;28;19924;-73
2022/12/17 21:59:20;;;;;;;;;;;-4.20;99.90;;;;;;5020475;28;19917;-73
2022/12/17 22:01:46;;;;;;;;;;;-4.20;99.90;;;;;;5006979;28;20585;-74
2022/12/17 22:04:11;;;;;;;;;;;-4.30;99.90;;;;;;5014238;28;19917;-64
2022/12/17 22:06:42;;;;;;;;;;;-4.20;99.90;;;;;;5028679;28;19924;-73
2022/12/17 22:09:08;;;;;;;;;;;-4.40;99.90;;;;;;5029199;28;19912;-73
2022/12/17 22:11:34;;;;;;;;;;;-4.30;99.90;;;;;;5027285;28;19912;-73
2022/12/17 22:14:08;;;;;;;;;;;-4.30;99.90;;;;;;5023182;28;19994;-73
2022/12/17 22:16:41;;;;;;;;;;;-4.30;99.90;;;;;;5012676;28;19982;-73
2022/12/17 22:19:07;;;;;;;;;;;-4.30;99.90;;;;;;5012227;28;20603;-73
2022/12/17 22:21:34;;;;;;;;;;;-4.40;99.90;;;;;;5002603;28;19919;-72
2022/12/17 22:23:59;;;;;;;;;;;-4.40;99.90;;;;;;5024318;28;19917;-73
2022/12/17 22:26:25;;;;;;;;;;;-4.40;99.90;;;;;;5033542;28;19939;-73
2022/12/17 22:28:51;;;;;;;;;;;-4.40;99.90;;;;;;5026609;28;19913;-73
2022/12/17 22:34:01;;;;;;;;;;;-4.50;99.90;;;;;;5023800;28;20630;-64
2022/12/17 22:36:27;;;;;;;;;;;-4.50;99.90;;;;;;5025534;28;19920;-64
2022/12/17 22:38:52;;;;;;;;;;;-4.50;99.90;;;;;;5026726;28;19917;-65
2022/12/17 22:44:20;;;;;;;;;;;-4.60;99.90;;;;;;5020348;28;20036;-64
2022/12/17 22:46:46;;;;;;;;;;;-4.50;99.90;;;;;;5014787;28;20011;-64
2022/12/17 22:49:12;;;;;;;;;;;-4.60;99.90;;;;;;5028858;28;19927;-64
2022/12/17 22:51:38;;;;;;;;;;;-4.60;99.90;;;;;;5005870;28;20376;-64
2022/12/17 22:54:07;;;;;;;;;;;-4.60;99.90;;;;;;5026544;28;19948;-64
2022/12/17 22:56:33;;;;;;;;;;;-4.60;99.90;;;;;;5027713;28;19920;-63
2022/12/17 22:58:59;;;;;;;;;;;-4.60;99.90;;;;;;5010652;28;19962;-73
2022/12/17 23:01:25;;;;;;;;;;;-4.70;99.90;;;;;;5028345;28;20305;-72
2022/12/17 23:03:54;;;;;;;;;;;-4.60;99.90;;;;;;5026735;28;19924;-72
2022/12/17 23:06:20;;;;;;;;;;;-4.70;99.90;;;;;;5027261;28;19923;-72
2022/12/17 23:08:46;;;;;;;;;;;-4.80;99.90;;;;;;5011054;28;19916;-72
2022/12/17 23:11:32;;;;;;;;;;;-5.00;99.90;;;;;;5019634;28;19913;-72
2022/12/17 23:14:01;;;;;;;;;;;-5.10;99.90;;;;;;5023849;28;19924;-72
2022/12/17 23:16:26;;;;;;;;;;;-5.10;99.90;;;;;;5010954;28;19908;-73
2022/12/17 23:18:53;;;;;;;;;;;-5.20;99.90;;;;;;5023565;28;19971;-72
2022/12/17 23:21:23;;;;;;;;;;;-5.30;99.90;;;;;;5026455;28;19924;-73
2022/12/17 23:23:49;;;;;;;;;;;-5.30;99.90;;;;;;5022582;28;20342;-73
2022/12/17 23:26:16;;;;;;;;;;;-5.30;99.90;;;;;;4976517;28;19948;-73
2022/12/17 23:28:43;;;;;;;;;;;-5.30;99.90;;;;;;5024136;28;20273;-73
2022/12/17 23:31:09;;;;;;;;;;;-5.40;99.90;;;;;;5029651;28;20014;-74
2022/12/17 23:33:35;;;;;;;;;;;-5.40;99.90;;;;;;5014995;28;20243;-73
2022/12/17 23:36:01;;;;;;;;;;;-5.40;99.90;;;;;;5010647;28;19923;-73
2022/12/17 23:38:27;;;;;;;;;;;-5.40;99.90;;;;;;5015929;28;19917;-73
2022/12/17 23:40:53;;;;;;;;;;;-5.40;99.90;;;;;;5027582;28;19925;-74
2022/12/17 23:43:19;;;;;;;;;;;-5.50;99.90;;;;;;5027644;28;19913;-74
2022/12/17 23:45:44;;;;;;;;;;;-5.40;99.90;;;;;;5020672;28;19940;-73
2022/12/17 23:48:10;;;;;;;;;;;-5.50;99.90;;;;;;5008015;28;19909;-74
2022/12/17 23:50:35;;;;;;;;;;;-5.50;99.90;;;;;;5027989;28;19913;-74
2022/12/17 23:53:01;;;;;;;;;;;-5.50;99.90;;;;;;5026903;28;19920;-73
2022/12/17 23:55:27;;;;;;;;;;;-5.50;99.90;;;;;;5021427;28;20444;-73
2022/12/17 23:57:56;;;;;;;;;;;-5.50;99.90;;;;;;5010288;28;19917;-74
